createdAt,value
2022-11-27T00:03:12.519Z,1.45
2022-11-27T00:08:15.845Z,1.46
2022-11-27T00:13:19.769Z,1.47
2022-11-27T00:18:22.980Z,1.49
2022-11-27T00:23:26.185Z,1.49
2022-11-27T00:28:30.212Z,1.51
2022-11-27T00:33:33.626Z,1.50
2022-11-27T00:38:39.233Z,1.49
2022-11-27T00:43:45.045Z,1.49
2022-11-27T00:48:49.087Z,1.50
2022-11-27T00:53:53.273Z,1.50
2022-11-27T00:58:57.142Z,1.51
2022-11-27T01:04:01.679Z,1.52
2022-11-27T01:09:05.708Z,1.52
2022-11-27T01:14:14.442Z,1.52
2022-11-27T01:19:17.548Z,1.52
2022-11-27T01:24:21.216Z,1.53
2022-11-27T01:29:24.375Z,1.53
2022-11-27T01:34:27.479Z,1.53
2022-11-27T01:39:30.686Z,1.52
2022-11-27T01:44:33.846Z,1.51
2022-11-27T01:49:44.476Z,1.51
2022-11-27T01:54:53.317Z,1.50
2022-11-27T02:00:00.209Z,1.51
2022-11-27T02:05:03.932Z,1.50
2022-11-27T02:10:07.912Z,1.49
2022-11-27T02:15:26.833Z,1.49
2022-11-27T02:20:47.552Z,1.49
2022-11-27T02:26:28.547Z,1.50
2022-11-27T02:31:38.515Z,1.51
2022-11-27T02:36:49.094Z,1.53
2022-11-27T02:41:59.877Z,1.54
2022-11-27T02:47:05.337Z,1.55
2022-11-27T02:52:12.130Z,1.55
2022-11-27T02:57:16.568Z,1.55
2022-11-27T03:02:27.519Z,1.55
2022-11-27T03:07:39.738Z,1.54
2022-11-27T03:12:43.084Z,1.54
2022-11-27T03:17:55.304Z,1.54
2022-11-27T03:22:59.125Z,1.53
2022-11-27T03:28:06.386Z,1.52
2022-11-27T03:33:09.842Z,1.52
2022-11-27T03:38:13.051Z,1.52
2022-11-27T03:43:28.033Z,1.53
2022-11-27T03:48:43.634Z,1.55
2022-11-27T03:54:19.609Z,1.56
2022-11-27T03:59:28.962Z,1.57
2022-11-27T04:04:32.477Z,1.58
2022-11-27T04:09:35.786Z,1.60
2022-11-27T04:14:39.171Z,1.61
2022-11-27T04:19:42.720Z,1.62
2022-11-27T04:24:46.133Z,1.60
2022-11-27T04:29:49.333Z,1.59
2022-11-27T04:34:52.953Z,1.58
2022-11-27T04:39:56.236Z,1.59
2022-11-27T04:44:59.471Z,1.60
2022-11-27T04:50:03.597Z,1.61
2022-11-27T04:55:07.595Z,1.62
2022-11-27T05:00:11.659Z,1.61
2022-11-27T05:05:15.070Z,1.61
2022-11-27T05:10:18.482Z,1.61
2022-11-27T05:15:21.378Z,1.61
2022-11-27T05:20:24.688Z,1.61
2022-11-27T05:25:27.894Z,1.60
2022-11-27T05:30:31.745Z,1.61
2022-11-27T05:35:34.979Z,1.61
2022-11-27T05:40:39.163Z,1.62
2022-11-27T05:45:42.363Z,1.63
2022-11-27T05:50:45.570Z,1.63
2022-11-27T05:55:48.883Z,1.64
2022-11-27T06:00:52.605Z,1.64
2022-11-27T06:05:55.607Z,1.63
2022-11-27T06:10:58.813Z,1.63
2022-11-27T06:16:09.235Z,1.62
2022-11-27T06:21:14.956Z,1.62
2022-11-27T06:26:20.591Z,1.62
2022-11-27T06:31:27.540Z,1.63
2022-11-27T06:36:33.949Z,1.64
2022-11-27T06:41:37.005Z,1.65
2022-11-27T06:46:40.519Z,1.67
2022-11-27T06:51:43.623Z,1.71
2022-11-27T06:56:50.725Z,1.73
2022-11-27T07:01:54.047Z,1.77
2022-11-27T07:06:57.651Z,1.81
2022-11-27T07:12:00.857Z,1.86
2022-11-27T07:17:04.270Z,1.89
2022-11-27T07:22:07.272Z,1.94
2022-11-27T07:27:10.992Z,1.98
2022-11-27T07:32:14.814Z,2.03
2022-11-27T07:37:17.920Z,2.07
2022-11-27T07:42:37.664Z,2.13
2022-11-27T07:47:41.539Z,2.21
2022-11-27T07:52:44.746Z,2.29
2022-11-27T07:57:47.957Z,2.37
2022-11-27T08:02:51.572Z,2.44
2022-11-27T08:07:55.291Z,2.50
2022-11-27T08:12:59.593Z,2.55
2022-11-27T08:18:04.320Z,2.57
2022-11-27T08:23:07.941Z,2.59
2022-11-27T08:28:11.612Z,2.64
2022-11-27T08:33:15.016Z,2.67
2022-11-27T08:38:18.633Z,2.71
2022-11-27T08:43:22.666Z,2.75
2022-11-27T08:48:26.180Z,2.81
2022-11-27T08:53:29.591Z,2.85
2022-11-27T08:58:33.105Z,2.89
2022-11-27T09:03:36.467Z,2.93
2022-11-27T09:08:41.670Z,2.98
2022-11-27T09:13:45.597Z,3.06
2022-11-27T09:18:51.773Z,3.15
2022-11-27T09:23:57.050Z,3.24
2022-11-27T09:29:00.748Z,3.33
2022-11-27T09:34:05.286Z,3.40
2022-11-27T09:39:08.595Z,3.48
2022-11-27T09:44:27.063Z,3.56
2022-11-27T09:49:48.087Z,3.64
2022-11-27T09:55:12.081Z,3.76
2022-11-27T10:00:19.001Z,3.88
2022-11-27T10:05:33.243Z,3.98
2022-11-27T10:10:49.969Z,4.07
2022-11-27T10:16:23.948Z,4.13
2022-11-27T10:21:58.745Z,4.17
2022-11-27T10:27:10.556Z,4.17
2022-11-27T10:32:53.973Z,4.16
2022-11-27T10:38:24.556Z,4.10
2022-11-27T10:43:27.663Z,4.03
2022-11-27T10:48:33.140Z,3.98
2022-11-27T10:53:39.844Z,3.92
2022-11-27T10:59:03.293Z,3.87
2022-11-27T11:04:24.717Z,3.87
2022-11-27T11:09:35.205Z,3.85
2022-11-27T11:14:38.876Z,3.84
2022-11-27T11:19:44.288Z,3.83
2022-11-27T11:24:52.960Z,3.83
2022-11-27T11:29:59.674Z,3.82
2022-11-27T11:35:35.003Z,3.79
2022-11-27T11:40:38.795Z,3.79
2022-11-27T11:45:49.123Z,3.81
2022-11-27T11:50:58.315Z,3.81
2022-11-27T11:56:32.756Z,3.81
2022-11-27T12:01:43.744Z,3.81
2022-11-27T12:07:02.629Z,3.82
2022-11-27T12:12:19.346Z,3.83
2022-11-27T12:17:36.584Z,3.82
2022-11-27T12:22:49.012Z,3.77
2022-11-27T12:28:00.178Z,3.77
2022-11-27T12:33:19.485Z,3.78
2022-11-27T12:38:49.418Z,3.77
2022-11-27T12:44:01.336Z,3.76
2022-11-27T12:49:19.730Z,3.74
2022-11-27T12:54:30.922Z,3.69
2022-11-27T12:59:43.879Z,3.64
2022-11-27T13:04:57.599Z,3.63
2022-11-27T13:10:12.732Z,3.62
2022-11-27T13:15:32.124Z,3.60
2022-11-27T13:20:38.496Z,3.57
2022-11-27T13:25:47.373Z,3.54
2022-11-27T13:30:53.539Z,3.53
2022-11-27T13:35:58.001Z,3.54
2022-11-27T13:41:06.013Z,3.53
2022-11-27T13:46:21.089Z,3.54
2022-11-27T13:51:33.432Z,3.51
2022-11-27T13:56:37.240Z,3.48
2022-11-27T14:01:40.763Z,3.46
2022-11-27T14:06:44.578Z,3.45
2022-11-27T14:11:48.487Z,3.43
2022-11-27T14:17:05.392Z,3.41
2022-11-27T14:22:17.652Z,3.39
2022-11-27T14:27:24.446Z,3.36
2022-11-27T14:32:36.051Z,3.34
2022-11-27T14:37:40.185Z,3.30
2022-11-27T14:42:43.693Z,3.26
2022-11-27T14:47:52.741Z,3.23
2022-11-27T14:52:57.487Z,3.20
2022-11-27T14:58:01.815Z,3.17
2022-11-27T15:03:10.877Z,3.14
2022-11-27T15:08:15.931Z,3.12
2022-11-27T15:13:25.505Z,3.10
2022-11-27T15:18:31.484Z,3.09
2022-11-27T15:23:36.085Z,3.09
2022-11-27T15:28:50.223Z,3.10
2022-11-27T15:34:21.852Z,3.09
2022-11-27T15:39:26.569Z,3.07
2022-11-27T15:44:32.690Z,3.06
2022-11-27T15:49:36.258Z,3.04
2022-11-27T15:54:40.576Z,3.03
2022-11-27T15:59:44.212Z,3.01
2022-11-27T16:04:47.415Z,2.99
2022-11-27T16:09:50.932Z,2.96
2022-11-27T16:14:54.344Z,2.95
2022-11-27T16:19:58.478Z,2.93
2022-11-27T16:25:01.999Z,2.92
2022-11-27T16:30:07.020Z,2.94
2022-11-27T16:35:11.579Z,2.92
2022-11-27T16:40:17.549Z,2.91
2022-11-27T16:45:21.943Z,2.92
2022-11-27T16:50:27.092Z,2.92
2022-11-27T16:55:33.221Z,2.93
2022-11-27T17:00:36.973Z,2.93
2022-11-27T17:05:41.888Z,2.93
2022-11-27T17:10:46.634Z,2.93
2022-11-27T17:15:51.444Z,2.91
2022-11-27T17:21:02.817Z,2.90
2022-11-27T17:26:09.232Z,2.90
2022-11-27T17:31:17.529Z,2.91
2022-11-27T17:36:21.202Z,2.91
2022-11-27T17:41:28.098Z,2.91
2022-11-27T17:46:34.270Z,2.93
2022-11-27T17:51:37.796Z,2.95
2022-11-27T17:56:43.469Z,2.94
2022-11-27T18:01:50.295Z,2.94
2022-11-27T18:06:54.848Z,2.93
2022-11-27T18:12:00.050Z,2.92
2022-11-27T18:17:05.908Z,2.92
2022-11-27T18:22:13.446Z,2.93
2022-11-27T18:27:18.723Z,2.94
2022-11-27T18:32:23.346Z,2.93
2022-11-27T18:37:26.631Z,2.92
2022-11-27T18:42:32.809Z,2.90
2022-11-27T18:47:36.338Z,2.89
2022-11-27T18:52:40.450Z,2.89
2022-11-27T18:57:45.345Z,2.89
2022-11-27T19:02:49.791Z,2.89
2022-11-27T19:07:53.700Z,2.89
2022-11-27T19:12:58.502Z,2.89
2022-11-27T19:18:02.121Z,2.88
2022-11-27T19:23:06.763Z,2.89
2022-11-27T19:28:11.890Z,2.90
2022-11-27T19:33:16.868Z,2.90
2022-11-27T19:38:20.279Z,2.89
2022-11-27T19:43:23.903Z,2.90
2022-11-27T19:48:27.617Z,2.89
2022-11-27T19:53:33.104Z,2.88
2022-11-27T19:58:37.524Z,2.85
2022-11-27T20:03:42.138Z,2.83
2022-11-27T20:08:48.201Z,2.84
2022-11-27T20:13:52.054Z,2.85
2022-11-27T20:18:56.319Z,2.85
2022-11-27T20:23:59.702Z,2.85
2022-11-27T20:29:04.488Z,2.84
2022-11-27T20:34:09.184Z,2.82
2022-11-27T20:39:17.669Z,2.80
2022-11-27T20:44:25.033Z,2.79
2022-11-27T20:49:28.245Z,2.78
2022-11-27T20:54:31.847Z,2.77
2022-11-27T20:59:35.158Z,2.75
2022-11-27T21:04:38.978Z,2.73
2022-11-27T21:09:42.720Z,2.72
2022-11-27T21:14:48.203Z,2.69
2022-11-27T21:19:52.290Z,2.65
2022-11-27T21:24:55.805Z,2.62
2022-11-27T21:29:59.834Z,2.62
2022-11-27T21:35:05.405Z,2.62
2022-11-27T21:40:10.355Z,2.61
2022-11-27T21:45:14.677Z,2.62
2022-11-27T21:50:18.195Z,2.63
2022-11-27T21:55:21.508Z,2.62
2022-11-27T22:00:25.323Z,2.62
2022-11-27T22:05:29.252Z,2.58
2022-11-27T22:10:32.970Z,2.56
2022-11-27T22:15:37.304Z,2.55
2022-11-27T22:20:41.490Z,2.53
2022-11-27T22:25:44.640Z,2.52
2022-11-27T22:30:48.176Z,2.52
2022-11-27T22:35:51.676Z,2.51
2022-11-27T22:40:58.962Z,2.52
2022-11-27T22:46:06.138Z,2.52
2022-11-27T22:51:10.252Z,2.53
2022-11-27T22:56:13.619Z,2.55
2022-11-27T23:01:18.154Z,2.56
2022-11-27T23:06:23.814Z,2.56
2022-11-27T23:11:28.666Z,2.57
2022-11-27T23:16:32.420Z,2.59
2022-11-27T23:21:37.789Z,2.61
2022-11-27T23:26:41.569Z,2.61
2022-11-27T23:31:44.823Z,2.63
2022-11-27T23:36:48.088Z,2.64
2022-11-27T23:41:51.397Z,2.64
2022-11-27T23:46:55.424Z,2.65
2022-11-27T23:51:59.249Z,2.66
2022-11-27T23:57:03.583Z,2.66
